createdAt,value
2022-07-26T00:01:32.039Z,2.72
2022-07-26T00:03:59.861Z,6.00
2022-07-26T00:06:26.443Z,4.35
2022-07-26T00:08:53.467Z,5.65
2022-07-26T00:11:20.920Z,4.22
2022-07-26T00:13:48.422Z,8.50
2022-07-26T00:16:15.007Z,7.60
2022-07-26T00:18:42.266Z,5.07
2022-07-26T00:21:09.054Z,6.97
2022-07-26T00:23:38.441Z,6.38
2022-07-26T00:26:05.011Z,7.68
2022-07-26T00:28:31.552Z,7.05
2022-07-26T00:30:58.082Z,7.13
2022-07-26T00:33:24.584Z,5.80
2022-07-26T00:35:51.123Z,7.57
2022-07-26T00:38:17.617Z,5.75
2022-07-26T00:40:44.248Z,6.38
2022-07-26T00:43:10.846Z,5.65
2022-07-26T00:45:37.410Z,5.70
2022-07-26T00:48:04.304Z,4.82
2022-07-26T00:50:30.863Z,4.90
2022-07-26T00:52:57.434Z,6.30
2022-07-26T00:55:23.994Z,5.82
2022-07-26T00:57:50.732Z,7.32
2022-07-26T01:00:21.234Z,5.47
2022-07-26T01:02:48.057Z,7.10
2022-07-26T01:05:14.922Z,5.28
2022-07-26T01:07:42.011Z,4.13
2022-07-26T01:10:12.583Z,5.22
2022-07-26T01:12:40.272Z,5.40
2022-07-26T01:15:08.087Z,8.82
2022-07-26T01:17:36.325Z,5.93
2022-07-26T01:20:06.527Z,13.65
2022-07-26T01:22:33.184Z,5.40
2022-07-26T01:24:59.982Z,4.82
2022-07-26T01:27:30.753Z,8.98
2022-07-26T01:30:00.259Z,5.03
2022-07-26T01:32:26.774Z,4.78
2022-07-26T01:34:53.321Z,6.47
2022-07-26T01:37:19.829Z,7.43
2022-07-26T01:39:46.389Z,4.13
2022-07-26T01:42:12.898Z,5.03
2022-07-26T01:44:40.543Z,8.68
2022-07-26T01:47:07.095Z,6.13
2022-07-26T01:49:33.728Z,4.53
2022-07-26T01:52:00.253Z,4.22
2022-07-26T01:54:26.750Z,4.93
2022-07-26T01:56:53.272Z,5.07
2022-07-26T01:59:19.908Z,5.25
2022-07-26T02:01:46.678Z,5.80
2022-07-26T02:04:33.343Z,5.85
2022-07-26T02:07:05.368Z,5.43
2022-07-26T02:09:38.158Z,10.98
2022-07-26T02:12:06.785Z,8.57
2022-07-26T02:14:33.356Z,6.70
2022-07-26T02:17:00.269Z,4.72
2022-07-26T02:19:28.181Z,5.97
2022-07-26T02:21:55.661Z,4.38
2022-07-26T02:24:22.382Z,4.90
2022-07-26T02:26:48.944Z,7.80
2022-07-26T02:29:15.615Z,4.88
2022-07-26T02:31:42.202Z,5.35
2022-07-26T02:34:15.406Z,8.40
2022-07-26T02:36:42.093Z,6.38
2022-07-26T02:39:08.605Z,4.50
2022-07-26T02:41:35.218Z,6.57
2022-07-26T02:44:01.830Z,4.95
2022-07-26T02:46:28.563Z,6.75
2022-07-26T02:48:55.367Z,6.90
2022-07-26T02:51:22.233Z,6.88
2022-07-26T02:53:48.730Z,4.30
2022-07-26T02:56:15.262Z,11.52
2022-07-26T02:58:41.743Z,5.85
2022-07-26T03:01:08.640Z,5.30
2022-07-26T03:03:36.640Z,4.93
2022-07-26T03:06:05.196Z,8.88
2022-07-26T03:08:31.920Z,5.53
2022-07-26T03:10:58.544Z,12.80
2022-07-26T03:13:25.054Z,8.32
2022-07-26T03:15:51.770Z,6.95
2022-07-26T03:18:18.364Z,4.97
2022-07-26T03:20:45.228Z,7.22
2022-07-26T03:23:11.774Z,5.15
2022-07-26T03:25:38.310Z,7.25
2022-07-26T03:28:05.112Z,6.55
2022-07-26T03:30:31.891Z,7.53
2022-07-26T03:32:58.481Z,8.60
2022-07-26T03:35:25.511Z,11.40
2022-07-26T03:37:52.844Z,7.10
2022-07-26T03:40:20.171Z,7.35
2022-07-26T03:42:48.070Z,8.85
2022-07-26T03:45:15.661Z,10.02
2022-07-26T03:47:42.670Z,10.95
2022-07-26T03:50:10.920Z,4.78
2022-07-26T03:52:37.549Z,5.43
2022-07-26T03:55:23.225Z,6.80
2022-07-26T03:57:49.815Z,5.00
2022-07-26T04:00:16.487Z,7.30
2022-07-26T04:02:43.445Z,7.43
2022-07-26T04:05:10.668Z,12.90
2022-07-26T04:07:52.479Z,4.47
2022-07-26T04:10:20.545Z,8.82
2022-07-26T04:12:47.073Z,6.15
2022-07-26T04:15:13.561Z,6.60
2022-07-26T04:17:41.209Z,8.60
2022-07-26T04:20:09.313Z,7.93
2022-07-26T04:22:36.665Z,10.77
2022-07-26T04:25:05.430Z,8.32
2022-07-26T04:27:32.198Z,10.15
2022-07-26T04:29:59.299Z,7.45
2022-07-26T04:32:25.779Z,7.32
2022-07-26T04:34:52.370Z,8.93
2022-07-26T04:37:19.049Z,8.38
2022-07-26T04:39:46.033Z,6.38
2022-07-26T04:42:12.613Z,5.93
2022-07-26T04:44:39.172Z,10.88
2022-07-26T04:47:05.843Z,14.60
2022-07-26T04:49:32.489Z,12.75
2022-07-26T04:51:59.676Z,10.18
2022-07-26T04:54:26.805Z,8.10
2022-07-26T04:56:53.301Z,10.73
2022-07-26T04:59:21.816Z,11.85
2022-07-26T05:01:48.664Z,11.23
2022-07-26T05:04:15.464Z,10.70
2022-07-26T05:06:41.967Z,9.27
2022-07-26T05:09:08.948Z,11.50
2022-07-26T05:11:35.496Z,9.73
2022-07-26T05:14:02.063Z,8.23
2022-07-26T05:16:28.669Z,8.27
2022-07-26T05:18:55.684Z,9.50
2022-07-26T05:21:22.224Z,9.68
2022-07-26T05:23:48.864Z,13.88
2022-07-26T05:26:15.382Z,12.32
2022-07-26T05:28:41.995Z,15.45
2022-07-26T05:31:08.653Z,14.27
2022-07-26T05:33:35.239Z,13.32
2022-07-26T05:36:01.744Z,10.30
2022-07-26T05:38:28.287Z,9.75
2022-07-26T05:40:54.814Z,13.35
2022-07-26T05:43:21.324Z,9.63
2022-07-26T05:45:47.878Z,9.98
2022-07-26T05:48:14.460Z,8.25
2022-07-26T05:50:41.082Z,17.00
2022-07-26T05:53:07.594Z,10.23
2022-07-26T05:55:34.162Z,15.05
2022-07-26T05:58:00.695Z,9.82
2022-07-26T06:00:27.226Z,8.95
2022-07-26T06:02:53.755Z,9.82
2022-07-26T06:05:20.506Z,8.82
2022-07-26T06:07:47.118Z,10.50
2022-07-26T06:10:13.666Z,7.53
2022-07-26T06:12:40.160Z,13.02
2022-07-26T06:15:15.343Z,6.93
2022-07-26T06:17:42.919Z,8.10
2022-07-26T06:20:10.145Z,11.20
2022-07-26T06:22:36.655Z,12.90
2022-07-26T06:25:03.429Z,11.80
2022-07-26T06:27:32.103Z,9.93
2022-07-26T06:29:58.613Z,9.77
2022-07-26T06:32:25.130Z,9.65
2022-07-26T06:34:51.650Z,7.93
2022-07-26T06:37:18.144Z,7.28
2022-07-26T06:39:44.789Z,10.50
2022-07-26T06:42:11.319Z,11.68
2022-07-26T06:44:37.911Z,11.32
2022-07-26T06:47:04.496Z,12.25
2022-07-26T06:49:31.021Z,16.83
2022-07-26T06:51:57.959Z,11.70
2022-07-26T06:54:24.466Z,8.32
2022-07-26T06:56:51.076Z,12.43
2022-07-26T06:59:17.635Z,14.70
2022-07-26T07:01:57.701Z,13.95
2022-07-26T07:04:27.634Z,15.10
2022-07-26T07:06:54.202Z,16.52
2022-07-26T07:09:21.723Z,25.02
2022-07-26T07:11:51.758Z,22.02
2022-07-26T07:14:22.876Z,18.75
2022-07-26T07:16:49.425Z,26.67
2022-07-26T07:19:16.055Z,16.05
2022-07-26T07:21:42.560Z,18.00
2022-07-26T07:24:09.708Z,22.10
2022-07-26T07:26:36.723Z,27.40
2022-07-26T07:29:04.256Z,19.42
2022-07-26T07:31:49.097Z,25.17
2022-07-26T07:34:19.520Z,20.80
2022-07-26T07:36:46.586Z,19.73
2022-07-26T07:39:17.160Z,25.92
2022-07-26T07:41:48.018Z,23.65
2022-07-26T07:44:15.195Z,20.52
2022-07-26T07:46:42.067Z,19.77
2022-07-26T07:49:10.967Z,17.02
2022-07-26T07:51:37.906Z,20.20
2022-07-26T07:54:05.868Z,20.65
2022-07-26T07:56:33.091Z,19.80
2022-07-26T07:58:59.768Z,17.42
2022-07-26T08:01:39.438Z,22.73
2022-07-26T08:04:08.744Z,17.80
2022-07-26T08:06:36.092Z,20.05
2022-07-26T08:09:03.836Z,21.90
2022-07-26T08:11:33.930Z,21.98
2022-07-26T08:14:01.242Z,20.83
2022-07-26T08:16:27.820Z,27.02
2022-07-26T08:18:57.656Z,17.40
2022-07-26T08:21:29.123Z,23.73
2022-07-26T08:23:56.485Z,23.85
2022-07-26T08:26:23.564Z,23.67
2022-07-26T08:29:00.113Z,20.63
2022-07-26T08:31:28.322Z,22.63
2022-07-26T08:33:55.115Z,20.38
2022-07-26T08:36:21.811Z,18.52
2022-07-26T08:38:48.597Z,17.02
2022-07-26T08:41:17.686Z,17.80
2022-07-26T08:43:51.988Z,17.08
2022-07-26T08:46:25.182Z,23.73
2022-07-26T08:48:53.120Z,17.08
2022-07-26T08:51:22.730Z,13.60
2022-07-26T08:53:50.773Z,13.95
2022-07-26T08:56:17.297Z,15.10
2022-07-26T08:58:43.909Z,17.27
2022-07-26T09:01:13.093Z,14.00
2022-07-26T09:03:41.154Z,17.27
2022-07-26T09:09:10.860Z,14.95
2022-07-26T09:11:37.768Z,18.85
2022-07-26T09:14:06.091Z,16.75
2022-07-26T09:16:37.300Z,12.40
2022-07-26T09:19:17.696Z,10.95
2022-07-26T09:21:44.701Z,15.82
2022-07-26T09:24:11.212Z,12.75
2022-07-26T09:26:38.346Z,13.20
2022-07-26T09:29:13.257Z,10.73
2022-07-26T09:31:40.487Z,9.65
2022-07-26T09:34:08.291Z,8.43
2022-07-26T09:36:51.571Z,10.05
2022-07-26T09:39:18.177Z,7.03
2022-07-26T09:42:28.442Z,8.52
2022-07-26T09:44:57.277Z,11.05
2022-07-26T09:47:36.223Z,9.30
2022-07-26T09:50:18.132Z,12.88
2022-07-26T09:53:08.585Z,8.35
2022-07-26T09:55:53.555Z,8.00
2022-07-26T09:58:20.128Z,10.77
2022-07-26T10:00:46.675Z,12.23
2022-07-26T10:03:13.595Z,14.38
2022-07-26T10:05:41.289Z,15.48
2022-07-26T10:08:08.888Z,7.35
2022-07-26T10:10:42.391Z,8.13
2022-07-26T10:13:10.264Z,6.15
2022-07-26T10:15:39.679Z,3.95
2022-07-26T10:18:08.446Z,3.13
2022-07-26T10:20:50.553Z,2.83
2022-07-26T10:23:37.684Z,3.70
2022-07-26T10:26:07.116Z,6.38
2022-07-26T10:28:54.779Z,1.75
2022-07-26T10:31:21.324Z,3.33
2022-07-26T10:33:49.993Z,4.95
2022-07-26T10:36:42.737Z,6.05
2022-07-26T10:39:13.455Z,3.22
2022-07-26T10:41:46.671Z,4.22
2022-07-26T10:44:17.878Z,4.05
2022-07-26T10:47:08.483Z,5.50
2022-07-26T10:49:37.990Z,6.15
2022-07-26T10:52:09.274Z,17.50
2022-07-26T10:54:58.190Z,5.63
2022-07-26T10:57:34.102Z,6.00
2022-07-26T11:00:01.623Z,7.43
2022-07-26T11:02:35.774Z,4.00
2022-07-26T11:05:18.368Z,10.18
2022-07-26T11:07:54.184Z,3.42
2022-07-26T11:10:24.775Z,2.67
2022-07-26T11:13:06.531Z,1.70
2022-07-26T11:15:34.380Z,2.58
2022-07-26T11:18:19.118Z,2.47
2022-07-26T11:20:47.561Z,3.30
2022-07-26T11:26:09.898Z,2.78
2022-07-26T11:28:55.227Z,3.85
2022-07-26T11:31:50.321Z,3.65
2022-07-26T11:34:26.406Z,3.03
2022-07-26T11:36:55.479Z,4.32
2022-07-26T11:39:31.201Z,6.70
2022-07-26T11:42:00.124Z,2.10
2022-07-26T11:44:27.280Z,4.18
2022-07-26T11:46:53.970Z,2.88
2022-07-26T11:49:25.071Z,4.05
2022-07-26T11:51:59.842Z,4.55
2022-07-26T11:54:31.330Z,3.55
2022-07-26T11:57:00.582Z,0.95
2022-07-26T11:59:29.521Z,2.80
2022-07-26T12:01:57.832Z,2.70
2022-07-26T12:04:39.069Z,4.88
2022-07-26T12:07:15.296Z,4.35
2022-07-26T12:09:47.380Z,2.65
2022-07-26T12:12:27.370Z,3.85
2022-07-26T12:15:05.834Z,3.92
2022-07-26T12:17:35.179Z,4.68
2022-07-26T12:23:00.426Z,2.13
2022-07-26T12:25:28.707Z,4.13
2022-07-26T12:27:55.598Z,1.60
2022-07-26T12:30:23.119Z,2.17
2022-07-26T12:32:55.217Z,0.93
2022-07-26T12:35:32.254Z,0.40
2022-07-26T12:37:59.486Z,1.63
2022-07-26T12:40:30.835Z,2.80
2022-07-26T12:43:02.388Z,1.92
2022-07-26T12:45:33.899Z,1.10
2022-07-26T12:48:02.240Z,1.27
2022-07-26T12:50:31.641Z,1.52
2022-07-26T12:53:04.712Z,2.08
2022-07-26T12:55:31.727Z,0.50
2022-07-26T12:57:59.421Z,0.75
2022-07-26T13:00:26.834Z,1.02
2022-07-26T13:02:56.191Z,1.38
2022-07-26T13:05:23.177Z,1.17
2022-07-26T13:07:51.556Z,0.80
2022-07-26T13:13:02.384Z,4.53
2022-07-26T13:15:36.001Z,1.23
2022-07-26T13:18:05.214Z,1.48
2022-07-26T13:20:32.640Z,3.22
2022-07-26T13:22:59.182Z,1.10
2022-07-26T13:25:26.121Z,5.00
2022-07-26T13:28:00.537Z,2.40
2022-07-26T13:30:27.050Z,2.17
2022-07-26T13:32:53.636Z,2.33
2022-07-26T13:35:20.171Z,0.90
2022-07-26T13:37:46.632Z,2.88
2022-07-26T13:40:13.271Z,1.63
2022-07-26T13:42:39.954Z,1.05
2022-07-26T13:45:07.568Z,2.45
2022-07-26T13:47:34.051Z,3.67
2022-07-26T13:50:00.617Z,1.92
2022-07-26T13:52:27.220Z,0.98
2022-07-26T13:54:53.733Z,3.88
2022-07-26T13:57:20.236Z,4.32
2022-07-26T13:59:46.753Z,0.75
2022-07-26T14:02:13.457Z,4.00
2022-07-26T14:04:40.196Z,1.17
2022-07-26T14:07:06.732Z,0.85
2022-07-26T14:09:33.260Z,1.85
2022-07-26T14:11:59.796Z,3.28
2022-07-26T14:14:26.304Z,3.17
2022-07-26T14:16:52.894Z,2.40
2022-07-26T14:19:19.615Z,1.70
2022-07-26T14:21:48.913Z,1.42
2022-07-26T14:24:26.579Z,1.27
2022-07-26T14:26:56.852Z,0.60
2022-07-26T14:29:26.261Z,2.38
2022-07-26T14:31:53.149Z,1.42
2022-07-26T14:34:19.776Z,2.67
2022-07-26T14:36:46.292Z,0.77
2022-07-26T14:39:12.819Z,1.05
2022-07-26T14:41:39.496Z,1.40
2022-07-26T14:44:06.493Z,0.85
2022-07-26T14:46:33.142Z,1.42
2022-07-26T14:48:59.707Z,0.90
2022-07-26T14:51:26.369Z,1.38
2022-07-26T14:53:52.922Z,1.55
2022-07-26T14:56:19.465Z,2.42
2022-07-26T14:58:46.037Z,2.53
2022-07-26T15:01:12.899Z,2.58
2022-07-26T15:03:39.635Z,1.55
2022-07-26T15:06:06.214Z,1.58
2022-07-26T15:08:32.796Z,1.20
2022-07-26T15:10:59.420Z,2.15
2022-07-26T15:13:26.069Z,3.63
2022-07-26T15:15:52.659Z,2.05
2022-07-26T15:18:19.232Z,1.30
2022-07-26T15:20:45.815Z,3.10
2022-07-26T15:23:14.961Z,1.75
2022-07-26T15:25:41.485Z,1.92
2022-07-26T15:28:08.189Z,2.33
2022-07-26T15:30:35.801Z,1.58
2022-07-26T15:33:02.467Z,2.67
2022-07-26T15:35:30.059Z,4.60
2022-07-26T15:37:57.655Z,2.83
2022-07-26T15:40:25.004Z,0.87
2022-07-26T15:42:52.845Z,3.08
2022-07-26T15:45:22.767Z,1.75
2022-07-26T15:47:55.929Z,1.85
2022-07-26T15:50:26.033Z,1.98
2022-07-26T15:52:52.874Z,4.65
2022-07-26T15:55:20.281Z,0.98
2022-07-26T15:57:47.180Z,3.75
2022-07-26T16:00:14.891Z,2.28
2022-07-26T16:02:41.570Z,3.90
2022-07-26T16:05:09.522Z,1.65
2022-07-26T16:07:36.163Z,4.18
2022-07-26T16:10:02.701Z,1.77
2022-07-26T16:12:29.675Z,1.10
2022-07-26T16:14:56.449Z,2.17
2022-07-26T16:17:22.976Z,2.50
2022-07-26T16:19:49.492Z,2.67
2022-07-26T16:22:16.819Z,0.93
2022-07-26T16:24:43.414Z,5.03
2022-07-26T16:27:09.906Z,4.05
2022-07-26T16:29:36.451Z,3.00
2022-07-26T16:32:03.105Z,3.65
2022-07-26T16:34:30.407Z,4.10
2022-07-26T16:36:56.942Z,5.13
2022-07-26T16:39:23.432Z,3.90
2022-07-26T16:41:50.005Z,5.15
2022-07-26T16:44:16.671Z,8.18
2022-07-26T16:46:44.243Z,2.80
2022-07-26T16:49:11.651Z,1.15
2022-07-26T16:51:38.552Z,8.10
2022-07-26T16:54:05.179Z,4.57
2022-07-26T16:56:31.778Z,5.70
2022-07-26T16:58:58.781Z,2.40
2022-07-26T17:01:25.437Z,5.28
2022-07-26T17:03:52.031Z,2.47
2022-07-26T17:06:18.644Z,3.00
2022-07-26T17:08:45.435Z,1.92
2022-07-26T17:11:11.937Z,1.25
2022-07-26T17:13:38.571Z,3.15
2022-07-26T17:16:05.432Z,3.28
2022-07-26T17:18:32.028Z,2.92
2022-07-26T17:20:59.175Z,8.95
2022-07-26T17:23:25.726Z,1.92
2022-07-26T17:25:52.283Z,4.55
2022-07-26T17:28:18.839Z,2.55
2022-07-26T17:30:45.357Z,3.13
2022-07-26T17:33:11.996Z,2.47
2022-07-26T17:35:38.587Z,3.20
2022-07-26T17:38:05.349Z,5.13
2022-07-26T17:40:33.635Z,3.63
2022-07-26T17:43:00.319Z,3.65
2022-07-26T17:45:26.908Z,3.30
2022-07-26T17:47:53.460Z,4.18
2022-07-26T17:50:35.951Z,5.93
2022-07-26T17:53:03.453Z,6.72
2022-07-26T17:55:29.950Z,3.08
2022-07-26T17:57:56.521Z,2.55
2022-07-26T18:00:23.751Z,2.30
2022-07-26T18:02:55.149Z,3.45
2022-07-26T18:05:21.921Z,4.57
2022-07-26T18:07:48.497Z,5.43
2022-07-26T18:10:15.104Z,7.78
2022-07-26T18:12:41.820Z,5.93
2022-07-26T18:15:08.873Z,5.22
2022-07-26T18:17:36.279Z,3.53
2022-07-26T18:20:03.458Z,2.60
2022-07-26T18:22:30.002Z,2.20
2022-07-26T18:24:56.487Z,9.02
2022-07-26T18:27:23.573Z,5.07
2022-07-26T18:29:50.192Z,7.50
2022-07-26T18:32:16.919Z,5.20
2022-07-26T18:34:51.589Z,4.68
2022-07-26T18:37:20.521Z,7.95
2022-07-26T18:39:48.113Z,7.45
2022-07-26T18:42:14.668Z,9.77
2022-07-26T18:44:41.243Z,5.60
2022-07-26T18:47:08.041Z,5.50
2022-07-26T18:49:35.530Z,4.57
2022-07-26T18:52:08.241Z,6.72
2022-07-26T18:54:35.214Z,5.72
2022-07-26T18:57:01.764Z,5.15
2022-07-26T18:59:29.020Z,3.67
2022-07-26T19:01:55.592Z,7.13
2022-07-26T19:04:22.192Z,3.72
2022-07-26T19:06:49.318Z,4.03
2022-07-26T19:09:16.578Z,6.70
2022-07-26T19:11:45.711Z,7.13
2022-07-26T19:14:12.450Z,4.18
2022-07-26T19:16:38.958Z,4.97
2022-07-26T19:19:05.484Z,7.72
2022-07-26T19:21:31.978Z,5.57
2022-07-26T19:23:58.492Z,5.78
2022-07-26T19:26:27.565Z,7.60
2022-07-26T19:28:54.311Z,15.80
2022-07-26T19:31:21.653Z,7.25
2022-07-26T19:33:48.250Z,13.20
2022-07-26T19:36:17.358Z,11.45
2022-07-26T19:38:52.233Z,7.22
2022-07-26T19:41:19.961Z,6.68
2022-07-26T19:43:46.574Z,5.55
2022-07-26T19:46:13.201Z,9.75
2022-07-26T19:48:39.963Z,6.20
2022-07-26T19:51:06.522Z,5.80
2022-07-26T19:53:33.052Z,7.28
2022-07-26T19:55:59.600Z,5.28
2022-07-26T19:58:27.176Z,8.10
2022-07-26T20:00:53.780Z,5.83
2022-07-26T20:03:20.393Z,8.52
2022-07-26T20:05:47.227Z,5.35
2022-07-26T20:08:13.824Z,6.03
2022-07-26T20:10:40.460Z,6.35
2022-07-26T20:13:08.110Z,10.63
2022-07-26T20:15:34.747Z,4.53
2022-07-26T20:18:01.417Z,6.07
2022-07-26T20:20:28.017Z,5.55
2022-07-26T20:22:54.667Z,4.55
2022-07-26T20:25:22.088Z,8.15
2022-07-26T20:27:51.356Z,5.38
2022-07-26T20:30:18.299Z,4.80
2022-07-26T20:32:44.913Z,7.30
2022-07-26T20:35:11.671Z,6.38
2022-07-26T20:37:38.429Z,6.97
2022-07-26T20:40:05.531Z,6.47
2022-07-26T20:42:34.949Z,8.05
2022-07-26T20:45:01.922Z,8.95
2022-07-26T20:47:28.543Z,3.67
2022-07-26T20:49:59.673Z,6.35
2022-07-26T20:52:29.339Z,7.82
2022-07-26T20:54:55.902Z,4.07
2022-07-26T20:57:23.528Z,7.80
2022-07-26T20:59:50.172Z,6.30
2022-07-26T21:02:17.104Z,6.35
2022-07-26T21:04:43.825Z,7.43
2022-07-26T21:07:10.324Z,6.40
2022-07-26T21:09:36.976Z,8.88
2022-07-26T21:12:03.816Z,5.00
2022-07-26T21:14:30.395Z,8.13
2022-07-26T21:16:56.953Z,6.47
2022-07-26T21:19:23.521Z,6.28
2022-07-26T21:21:50.186Z,4.30
2022-07-26T21:24:16.766Z,6.05
2022-07-26T21:26:43.346Z,5.18
2022-07-26T21:29:10.249Z,8.98
2022-07-26T21:31:36.994Z,5.45
2022-07-26T21:34:03.735Z,5.45
2022-07-26T21:36:30.297Z,4.70
2022-07-26T21:38:57.820Z,5.93
2022-07-26T21:41:24.351Z,6.63
2022-07-26T21:43:50.902Z,6.68
2022-07-26T21:46:17.511Z,6.93
2022-07-26T21:48:44.155Z,13.25
2022-07-26T21:51:10.772Z,4.85
2022-07-26T21:53:37.332Z,8.60
2022-07-26T21:56:05.562Z,3.25
2022-07-26T21:58:36.292Z,6.65
2022-07-26T22:01:06.920Z,5.68
2022-07-26T22:03:36.002Z,8.32
2022-07-26T22:06:02.752Z,7.65
2022-07-26T22:08:29.362Z,8.75
2022-07-26T22:10:56.400Z,3.17
2022-07-26T22:13:23.317Z,4.13
2022-07-26T22:15:49.847Z,5.03
2022-07-26T22:18:17.372Z,6.10
2022-07-26T22:20:44.221Z,2.75
2022-07-26T22:23:12.588Z,5.53
2022-07-26T22:25:40.074Z,4.82
2022-07-26T22:28:07.882Z,7.15
2022-07-26T22:30:34.546Z,4.05
2022-07-26T22:33:02.383Z,7.45
2022-07-26T22:35:35.101Z,2.55
2022-07-26T22:38:05.988Z,7.65
2022-07-26T22:40:33.106Z,4.75
2022-07-26T22:42:59.924Z,3.28
2022-07-26T22:45:27.323Z,5.95
2022-07-26T22:47:56.297Z,4.75
2022-07-26T22:50:25.064Z,4.90
2022-07-26T22:55:18.194Z,4.28
2022-07-26T22:57:45.043Z,4.78
2022-07-26T23:00:14.316Z,2.90
2022-07-26T23:02:40.942Z,2.90
2022-07-26T23:05:08.620Z,8.82
2022-07-26T23:07:35.803Z,4.47
2022-07-26T23:10:03.254Z,6.95
2022-07-26T23:12:29.884Z,3.10
2022-07-26T23:14:56.555Z,2.00
2022-07-26T23:17:23.460Z,3.78
2022-07-26T23:19:50.049Z,3.95
2022-07-26T23:22:16.797Z,2.03
2022-07-26T23:24:43.936Z,2.63
2022-07-26T23:27:10.550Z,3.45
2022-07-26T23:29:37.355Z,5.65
2022-07-26T23:32:04.073Z,2.92
2022-07-26T23:34:30.715Z,6.03
2022-07-26T23:36:57.351Z,6.10
2022-07-26T23:39:23.879Z,4.45
2022-07-26T23:41:50.387Z,3.30
2022-07-26T23:44:17.375Z,4.80
2022-07-26T23:46:44.038Z,5.82
2022-07-26T23:49:11.239Z,7.35
2022-07-26T23:51:38.900Z,4.90
2022-07-26T23:54:05.912Z,4.40
2022-07-26T23:56:32.461Z,3.15
2022-07-26T23:58:59.012Z,5.72
